Terminal Aerodrome Forecast
Issued by NWS Wilmington, OH

Current Version | Previous Version | Graphics & Text | Print | Product List | Glossary On
Versions: 1 2 3 4 5 6 7 8 9 10 11 12 13 14 15 16 17 18
000
FTUS41 KILN 252300 RRA
TAFILN
TAF
KILN 252347Z 2600/2624 VRB05KT P6SM SCT050
     FM260700 08007KT 4SM -SHRA BR OVC040
     FM261000 09007KT 3SM -SHRA BR VCTS OVC015CB
     FM261300 33012G22KT 3SM -SHRA BR OVC010
     FM261800 32010G20KT 5SM BR VCSH BKN025
     FM262200 32014KT P6SM BKN040=

USA.gov is the U.S. government's official web portal to all federal, state and local government web resources and services.